createdAt,value
2022-11-12T00:20:43.662Z,14.80
2022-11-12T05:59:01.062Z,14.30
2022-11-12T06:03:25.528Z,14.60
2022-11-12T06:07:47.155Z,14.80
2022-11-12T06:13:55.159Z,14.90
2022-11-12T06:17:35.961Z,15.10
2022-11-12T06:22:01.330Z,15.10
2022-11-12T06:26:50.419Z,15.30
2022-11-12T06:31:13.588Z,15.50
2022-11-12T06:35:42.697Z,15.50
2022-11-12T06:40:04.579Z,15.50
2022-11-12T06:44:26.048Z,15.60
2022-11-12T06:48:51.134Z,15.70
2022-11-12T06:53:33.718Z,15.70
2022-11-12T06:57:55.350Z,15.80
2022-11-12T07:02:19.047Z,15.90
2022-11-12T07:06:43.270Z,15.90
2022-11-12T07:11:06.498Z,16.00
2022-11-12T07:15:28.022Z,16.00
2022-11-12T07:20:03.710Z,16.00
2022-11-12T07:24:48.041Z,16.10
2022-11-12T07:29:30.208Z,16.20
2022-11-12T07:34:07.908Z,16.40
2022-11-12T07:38:35.140Z,16.50
2022-11-12T07:43:02.464Z,16.60
2022-11-12T07:47:24.100Z,16.70
2022-11-12T07:51:46.614Z,16.80
2022-11-12T07:56:34.586Z,16.80
2022-11-12T08:01:12.194Z,17.00
2022-11-12T08:05:35.231Z,17.00
2022-11-12T08:09:58.500Z,17.10
2022-11-12T08:14:30.308Z,17.20
2022-11-12T08:18:52.249Z,17.30
2022-11-12T08:23:19.255Z,17.40
2022-11-12T08:27:40.561Z,17.50
2022-11-12T08:32:23.269Z,17.60
2022-11-12T08:46:47.534Z,17.70
2022-11-12T08:51:09.417Z,17.80
2022-11-12T08:55:33.840Z,17.80
2022-11-12T08:59:54.995Z,17.90
2022-11-12T09:04:17.801Z,17.90
2022-11-12T09:08:39.959Z,17.90
2022-11-12T09:13:01.911Z,18.00
2022-11-12T09:17:23.361Z,17.90
2022-11-12T09:21:48.778Z,17.90
2022-11-12T09:30:04.981Z,17.90
2022-11-12T09:35:00.226Z,18.00
2022-11-12T09:39:30.301Z,18.00
2022-11-12T09:43:54.632Z,18.00
2022-11-12T09:48:20.727Z,18.00
2022-11-12T09:52:44.613Z,18.10
2022-11-12T09:57:17.099Z,18.10
2022-11-12T10:02:02.261Z,18.20
2022-11-12T10:06:44.164Z,18.20
2022-11-12T10:22:33.020Z,18.40
2022-11-12T10:26:57.508Z,18.40
2022-11-12T10:31:22.363Z,18.40
2022-11-12T10:35:43.951Z,18.30
2022-11-12T10:40:25.041Z,18.30
2022-11-12T10:44:50.210Z,18.30
2022-11-12T10:49:23.119Z,18.20
2022-11-12T10:53:44.815Z,18.20
2022-11-12T10:58:11.199Z,18.20
2022-11-12T11:02:35.400Z,18.30
2022-11-12T11:07:20.187Z,18.30
2022-11-12T11:11:50.789Z,18.40
2022-11-12T11:16:18.360Z,18.50
2022-11-12T11:21:00.166Z,18.60
2022-11-12T11:25:54.891Z,18.60
2022-11-12T11:30:32.107Z,18.70
2022-11-12T11:35:04.553Z,18.70
2022-11-12T11:40:06.891Z,18.80
2022-11-12T11:44:45.718Z,18.80
2022-11-12T11:49:32.524Z,18.60
2022-11-12T11:54:15.730Z,18.50
2022-11-12T11:59:21.540Z,18.20
2022-11-12T12:04:00.630Z,18.10
2022-11-12T12:08:46.065Z,18.00
2022-11-12T12:13:38.309Z,18.00
2022-11-12T12:18:47.873Z,17.90
2022-11-12T12:35:38.797Z,18.00
2022-11-12T12:41:01.207Z,18.00
2022-11-12T12:45:36.317Z,18.10
2022-11-12T12:49:59.193Z,18.20
2022-11-12T12:54:35.571Z,18.30
2022-11-12T12:58:58.371Z,18.30
2022-11-12T13:03:46.399Z,18.40
2022-11-12T13:08:23.944Z,18.20
2022-11-12T13:13:26.359Z,18.30
2022-11-12T13:17:51.905Z,18.30
2022-11-12T13:22:19.857Z,18.30
2022-11-12T13:26:56.042Z,18.10
2022-11-12T13:37:03.934Z,18.00
2022-11-12T13:46:49.748Z,18.00
2022-11-12T13:51:37.068Z,18.00
2022-11-12T13:56:08.039Z,18.00
2022-11-12T14:00:55.559Z,18.10
2022-11-12T14:05:24.930Z,18.20
2022-11-12T14:10:34.454Z,18.20
2022-11-12T14:15:30.317Z,18.20
2022-11-12T14:20:19.111Z,18.10
2022-11-12T14:24:41.352Z,18.00
2022-11-12T14:29:05.755Z,18.00
2022-11-12T14:39:19.721Z,17.80
2022-11-12T14:43:47.251Z,17.70
2022-11-12T14:48:27.982Z,17.60
2022-11-12T14:53:51.861Z,17.60
2022-11-12T14:58:31.863Z,17.50
2022-11-12T15:04:16.795Z,17.50
2022-11-12T15:08:48.576Z,17.40
2022-11-12T15:26:24.823Z,17.10
2022-11-12T15:31:47.572Z,17.00
2022-11-12T15:36:52.679Z,16.90
2022-11-12T15:41:42.791Z,16.60
2022-11-12T15:46:17.351Z,16.50
2022-11-12T15:50:44.675Z,16.30
2022-11-12T15:55:07.899Z,16.20
2022-11-12T15:59:29.760Z,16.30
2022-11-12T16:03:51.408Z,16.30
2022-11-12T16:08:13.367Z,16.30
2022-11-12T16:12:35.450Z,16.40
2022-11-12T16:16:57.432Z,16.40
2022-11-12T16:21:21.002Z,16.30
2022-11-12T16:25:49.583Z,16.40
2022-11-12T16:30:27.797Z,16.40
2022-11-12T16:35:14.510Z,16.40
2022-11-12T16:44:20.254Z,16.00
2022-11-12T16:48:53.616Z,15.90
2022-11-12T16:53:44.218Z,15.80
2022-11-12T16:58:27.822Z,15.70
2022-11-12T17:03:04.904Z,15.50
2022-11-12T17:07:37.477Z,15.40
2022-11-12T17:12:44.221Z,15.30
2022-11-12T17:17:11.176Z,15.10
2022-11-12T17:21:49.369Z,15.10
2022-11-12T17:26:19.378Z,15.00
2022-11-12T17:30:42.032Z,14.90
2022-11-12T17:35:18.958Z,14.80
2022-11-12T17:39:53.593Z,14.60
2022-11-12T17:44:20.001Z,14.50
2022-11-12T17:48:43.277Z,14.30
2022-11-12T17:53:15.009Z,14.10
2022-11-12T17:57:50.986Z,14.00
2022-11-12T18:02:15.828Z,14.10
2022-11-12T18:06:49.026Z,14.00
2022-11-12T18:11:17.676Z,13.90
2022-11-12T18:15:40.509Z,13.80
2022-11-12T18:20:03.798Z,13.60
2022-11-12T18:24:28.833Z,13.50
2022-11-12T18:28:53.031Z,13.30
2022-11-12T18:33:15.363Z,13.10
2022-11-12T18:37:40.971Z,13.10
2022-11-12T18:42:03.210Z,13.00
2022-11-12T18:46:32.974Z,12.90
2022-11-12T18:51:09.155Z,12.80
2022-11-12T18:55:33.621Z,12.70
2022-11-12T18:59:59.862Z,12.60
2022-11-12T19:04:21.587Z,12.60
2022-11-12T19:08:44.599Z,12.60
2022-11-12T19:13:07.351Z,12.50
2022-11-12T19:17:31.180Z,12.50
2022-11-12T19:21:52.858Z,12.60
2022-11-12T19:26:17.129Z,13.10
2022-11-12T19:30:38.470Z,13.40
2022-11-12T19:34:59.517Z,13.80
2022-11-12T19:39:25.672Z,14.10
2022-11-12T19:43:47.533Z,14.40
2022-11-12T19:48:10.218Z,14.60
2022-11-12T19:52:55.782Z,14.80
2022-11-12T19:57:17.405Z,15.00
2022-11-12T20:01:39.047Z,15.10
2022-11-12T20:06:05.219Z,15.10
2022-11-12T20:10:26.332Z,15.20
2022-11-12T20:14:49.461Z,15.20
2022-11-12T20:19:10.772Z,15.20
2022-11-12T20:23:36.773Z,15.20
2022-11-12T20:27:58.462Z,15.20
2022-11-12T20:32:20.827Z,15.20
2022-11-12T20:36:45.898Z,15.10
2022-11-12T20:41:11.110Z,15.00
2022-11-12T20:45:32.835Z,14.90
2022-11-12T20:50:10.394Z,14.60
2022-11-12T20:55:41.898Z,14.40
2022-11-12T21:00:40.391Z,14.10
2022-11-12T21:06:15.062Z,13.80
2022-11-12T21:17:17.903Z,13.20
2022-11-12T21:21:40.241Z,13.00
2022-11-12T21:26:17.435Z,12.90
2022-11-12T21:30:43.238Z,12.60
2022-11-12T21:35:16.584Z,12.60
2022-11-12T21:39:53.423Z,12.50
2022-11-12T21:44:18.074Z,12.30
2022-11-12T21:48:55.050Z,12.30
2022-11-12T21:53:33.184Z,12.40
2022-11-12T21:57:57.523Z,12.60
2022-11-12T22:02:21.239Z,12.80
2022-11-12T22:07:01.814Z,12.90
2022-11-12T22:11:24.771Z,12.90
2022-11-12T22:15:46.285Z,13.00
2022-11-12T22:20:12.331Z,13.00
2022-11-12T22:24:43.427Z,13.10
2022-11-12T22:29:08.255Z,13.20
2022-11-12T22:33:29.689Z,13.50
2022-11-12T22:38:13.301Z,13.50
2022-11-12T22:42:37.799Z,13.60
2022-11-12T22:47:11.190Z,13.70
2022-11-12T22:51:50.564Z,13.90
2022-11-12T22:56:27.973Z,14.00
2022-11-12T23:00:51.056Z,14.00
2022-11-12T23:05:33.746Z,14.10
2022-11-12T23:10:00.788Z,14.00
2022-11-12T23:14:28.400Z,14.00
2022-11-12T23:19:05.155Z,14.00
2022-11-12T23:23:31.584Z,13.90
2022-11-12T23:27:54.772Z,13.70
2022-11-12T23:32:22.015Z,13.50
2022-11-12T23:36:55.222Z,13.30
2022-11-12T23:41:25.903Z,13.00
2022-11-12T23:45:54.012Z,12.70
